createdAt,value
2019-03-25T00:01:55.603Z,8.18
2019-03-25T00:04:23.620Z,8.13
2019-03-25T00:06:51.675Z,8.43
2019-03-25T00:09:19.686Z,7.70
2019-03-25T00:11:47.743Z,8.20
2019-03-25T00:14:15.809Z,7.45
2019-03-25T00:16:43.905Z,8.20
2019-03-25T00:19:11.987Z,8.15
2019-03-25T00:21:40.167Z,7.67
2019-03-25T00:24:08.185Z,7.42
2019-03-25T00:26:36.215Z,7.15
2019-03-25T00:29:04.245Z,7.40
2019-03-25T00:31:32.293Z,7.58
2019-03-25T00:34:00.312Z,7.75
2019-03-25T00:36:28.424Z,7.60
2019-03-25T00:38:59.319Z,7.78
2019-03-25T00:41:27.406Z,7.75
2019-03-25T00:43:55.452Z,7.75
2019-03-25T00:46:23.511Z,7.83
2019-03-25T00:48:51.567Z,7.78
2019-03-25T00:51:19.675Z,7.42
2019-03-25T00:53:47.692Z,7.70
2019-03-25T00:56:15.820Z,7.35
2019-03-25T00:58:43.847Z,7.35
2019-03-25T01:01:11.959Z,7.55
2019-03-25T01:03:39.992Z,7.30
2019-03-25T01:06:08.002Z,7.35
2019-03-25T01:08:36.048Z,7.08
2019-03-25T01:11:04.038Z,7.30
2019-03-25T01:13:32.089Z,7.42
2019-03-25T01:16:01.746Z,7.45
2019-03-25T01:18:29.793Z,7.60
2019-03-25T01:20:57.855Z,7.35
2019-03-25T01:23:25.965Z,6.85
2019-03-25T01:25:53.991Z,7.37
2019-03-25T01:28:22.033Z,6.97
2019-03-25T01:30:50.054Z,6.97
2019-03-25T01:33:18.201Z,7.17
2019-03-25T01:35:46.216Z,7.22
2019-03-25T01:38:14.336Z,7.28
2019-03-25T01:40:42.355Z,7.00
2019-03-25T01:43:10.357Z,6.55
2019-03-25T01:45:38.431Z,6.78
2019-03-25T01:48:06.462Z,7.03
2019-03-25T01:50:34.480Z,6.85
2019-03-25T01:53:02.598Z,6.95
2019-03-25T01:55:30.652Z,7.10
2019-03-25T01:57:58.675Z,6.40
2019-03-25T02:00:26.762Z,6.80
2019-03-25T02:02:54.774Z,6.50
2019-03-25T02:05:22.798Z,7.22
2019-03-25T02:07:50.808Z,6.25
2019-03-25T02:10:18.841Z,6.80
2019-03-25T02:12:46.895Z,6.55
2019-03-25T02:15:14.963Z,6.70
2019-03-25T02:17:42.985Z,6.42
2019-03-25T02:20:11.035Z,6.60
2019-03-25T02:22:39.132Z,6.90
2019-03-25T02:25:07.376Z,6.67
2019-03-25T02:27:35.384Z,6.22
2019-03-25T02:30:04.699Z,6.62
2019-03-25T02:32:32.763Z,6.42
2019-03-25T02:35:00.810Z,6.80
2019-03-25T02:37:28.870Z,6.50
2019-03-25T02:39:56.964Z,6.60
2019-03-25T02:42:24.960Z,6.20
2019-03-25T02:44:53.079Z,6.50
2019-03-25T02:47:21.120Z,6.12
2019-03-25T02:49:49.172Z,6.55
2019-03-25T02:52:17.243Z,6.25
2019-03-25T02:54:45.268Z,6.25
2019-03-25T02:57:13.306Z,6.60
2019-03-25T02:59:41.366Z,6.47
2019-03-25T03:02:09.405Z,6.58
2019-03-25T03:04:37.427Z,6.47
2019-03-25T03:07:05.528Z,5.70
2019-03-25T03:09:33.656Z,6.12
2019-03-25T03:12:01.693Z,6.25
2019-03-25T03:14:29.833Z,6.42
2019-03-25T03:16:57.884Z,6.50
2019-03-25T03:19:25.891Z,6.25
2019-03-25T03:21:53.902Z,6.78
2019-03-25T03:24:21.934Z,6.03
2019-03-25T03:26:49.992Z,6.50
2019-03-25T03:29:18.032Z,5.90
2019-03-25T03:31:46.056Z,6.60
2019-03-25T03:34:14.141Z,6.37
2019-03-25T03:36:42.176Z,6.25
2019-03-25T03:39:10.199Z,6.15
2019-03-25T03:41:38.205Z,6.37
2019-03-25T03:44:06.234Z,5.92
2019-03-25T03:46:34.252Z,5.60
2019-03-25T03:49:02.326Z,5.90
2019-03-25T03:51:30.444Z,6.50
2019-03-25T03:53:58.483Z,6.17
2019-03-25T03:56:26.501Z,6.05
2019-03-25T03:58:54.546Z,6.10
2019-03-25T04:01:22.610Z,6.30
2019-03-25T04:03:50.749Z,5.65
2019-03-25T04:08:44.748Z,5.85
2019-03-25T04:11:12.788Z,5.90
2019-03-25T04:13:40.860Z,5.90
2019-03-25T04:16:08.986Z,6.22
2019-03-25T04:18:37.091Z,6.10
2019-03-25T04:21:05.096Z,5.92
2019-03-25T04:23:33.138Z,5.80
2019-03-25T04:26:01.236Z,5.75
2019-03-25T04:28:29.237Z,5.90
2019-03-25T04:30:57.323Z,5.83
2019-03-25T04:33:25.342Z,6.08
2019-03-25T04:35:53.378Z,5.67
2019-03-25T04:38:21.424Z,6.03
2019-03-25T04:40:49.495Z,5.28
2019-03-25T04:43:17.518Z,5.80
2019-03-25T04:45:46.000Z,6.17
2019-03-25T04:48:14.067Z,5.53
2019-03-25T04:50:42.131Z,4.25
2019-03-25T04:53:10.167Z,5.42
2019-03-25T04:55:38.205Z,5.40
2019-03-25T04:58:06.225Z,5.70
2019-03-25T05:00:34.830Z,5.30
2019-03-25T05:03:02.854Z,5.60
2019-03-25T05:05:30.867Z,5.30
2019-03-25T05:07:58.895Z,5.40
2019-03-25T05:10:26.934Z,5.30
2019-03-25T05:15:17.983Z,5.53
2019-03-25T05:17:46.027Z,5.15
2019-03-25T05:20:14.044Z,5.25
2019-03-25T05:22:42.193Z,5.30
2019-03-25T05:25:10.205Z,5.28
2019-03-25T05:27:38.312Z,5.08
2019-03-25T05:30:06.800Z,5.53
2019-03-25T05:32:34.847Z,5.45
2019-03-25T05:35:02.931Z,5.50
2019-03-25T05:37:31.056Z,5.25
2019-03-25T05:39:59.078Z,5.58
2019-03-25T05:42:27.104Z,5.40
2019-03-25T05:44:55.110Z,5.50
2019-03-25T05:47:23.154Z,5.62
2019-03-25T05:49:51.229Z,5.58
2019-03-25T05:52:19.384Z,5.50
2019-03-25T05:54:47.399Z,5.58
2019-03-25T05:57:15.424Z,5.97
2019-03-25T05:59:43.447Z,5.78
2019-03-25T06:02:11.510Z,5.30
2019-03-25T06:04:39.511Z,5.20
2019-03-25T06:07:07.567Z,5.33
2019-03-25T06:09:35.611Z,5.00
2019-03-25T06:12:03.640Z,5.10
2019-03-25T06:14:31.667Z,5.60
2019-03-25T06:16:59.684Z,5.45
2019-03-25T06:19:27.724Z,5.00
2019-03-25T06:21:55.743Z,5.40
2019-03-25T06:24:23.813Z,5.25
2019-03-25T06:26:51.891Z,5.30
2019-03-25T06:29:19.936Z,4.90
2019-03-25T06:31:47.962Z,5.42
2019-03-25T06:34:16.011Z,5.20
2019-03-25T06:36:44.030Z,5.15
2019-03-25T06:39:12.082Z,5.12
2019-03-25T06:41:40.091Z,5.00
2019-03-25T06:44:08.132Z,4.92
2019-03-25T06:46:36.163Z,5.37
2019-03-25T06:49:04.390Z,5.00
2019-03-25T06:51:32.436Z,4.90
2019-03-25T06:54:00.446Z,5.03
2019-03-25T06:56:28.505Z,4.83
2019-03-25T06:58:56.510Z,5.00
2019-03-25T07:01:24.541Z,4.95
2019-03-25T07:03:52.548Z,5.05
2019-03-25T07:06:20.578Z,4.95
2019-03-25T07:08:48.672Z,4.60
2019-03-25T07:11:16.784Z,5.00
2019-03-25T07:13:44.808Z,4.47
2019-03-25T07:16:12.860Z,4.80
2019-03-25T07:18:40.945Z,4.53
2019-03-25T07:21:09.007Z,4.78
2019-03-25T07:23:37.097Z,4.47
2019-03-25T07:26:05.139Z,4.58
2019-03-25T07:28:33.152Z,4.72
2019-03-25T07:31:01.212Z,4.45
2019-03-25T07:33:29.323Z,4.37
2019-03-25T07:35:57.389Z,4.90
2019-03-25T07:38:25.481Z,4.55
2019-03-25T07:40:53.533Z,4.53
2019-03-25T07:43:21.651Z,4.15
2019-03-25T07:45:49.736Z,4.28
2019-03-25T07:48:17.821Z,4.30
2019-03-25T07:50:45.871Z,4.50
2019-03-25T07:53:13.994Z,4.10
2019-03-25T07:55:42.012Z,4.28
2019-03-25T07:58:10.156Z,4.33
2019-03-25T08:00:38.264Z,4.30
2019-03-25T08:03:06.364Z,4.53
2019-03-25T08:05:34.707Z,4.75
2019-03-25T08:08:02.739Z,4.10
2019-03-25T08:10:31.696Z,4.03
2019-03-25T08:13:00.029Z,4.17
2019-03-25T08:15:28.931Z,4.20
2019-03-25T08:17:57.101Z,4.40
2019-03-25T08:20:25.145Z,4.42
2019-03-25T08:22:53.196Z,4.20
2019-03-25T08:25:21.231Z,4.60
2019-03-25T08:27:59.462Z,4.40
2019-03-25T08:30:18.999Z,4.78
2019-03-25T08:32:47.020Z,3.60
2019-03-25T08:35:15.074Z,4.28
2019-03-25T08:37:43.080Z,4.28
2019-03-25T08:40:11.159Z,3.83
2019-03-25T08:42:39.174Z,4.20
2019-03-25T08:45:07.220Z,4.15
2019-03-25T08:47:36.877Z,4.20
2019-03-25T08:50:06.546Z,4.10
2019-03-25T08:52:36.359Z,4.47
2019-03-25T08:55:06.073Z,3.90
2019-03-25T08:57:34.102Z,4.30
2019-03-25T09:00:02.406Z,3.87
2019-03-25T09:02:30.447Z,4.25
2019-03-25T09:04:58.542Z,3.95
2019-03-25T09:07:26.636Z,4.10
2019-03-25T09:09:54.849Z,4.40
2019-03-25T09:12:22.883Z,4.10
2019-03-25T09:14:50.985Z,3.98
2019-03-25T09:17:19.075Z,3.77
2019-03-25T09:19:47.112Z,4.08
2019-03-25T09:22:15.183Z,4.10
2019-03-25T09:24:43.284Z,3.85
2019-03-25T09:27:11.368Z,4.05
2019-03-25T09:29:42.365Z,3.60
2019-03-25T09:32:10.455Z,3.95
2019-03-25T09:34:38.537Z,3.90
2019-03-25T09:37:06.572Z,3.80
2019-03-25T09:39:34.614Z,4.00
2019-03-25T09:42:02.659Z,4.00
2019-03-25T09:44:30.675Z,3.42
2019-03-25T09:46:58.740Z,3.85
2019-03-25T09:49:26.808Z,4.12
2019-03-25T09:51:54.881Z,3.65
2019-03-25T09:54:23.040Z,3.70
2019-03-25T09:56:51.079Z,3.60
2019-03-25T09:59:19.110Z,3.60
2019-03-25T10:01:47.157Z,4.05
2019-03-25T10:04:15.171Z,3.33
2019-03-25T10:06:43.268Z,2.77
2019-03-25T10:09:11.297Z,2.83
2019-03-25T10:11:39.347Z,3.02
2019-03-25T10:14:07.435Z,2.25
2019-03-25T10:16:35.482Z,2.20
2019-03-25T10:19:03.591Z,2.20
2019-03-25T10:21:31.650Z,2.02
2019-03-25T10:23:59.718Z,1.72
2019-03-25T10:26:27.805Z,1.75
2019-03-25T10:28:55.838Z,1.87
2019-03-25T10:31:23.854Z,2.12
2019-03-25T10:33:51.897Z,1.80
2019-03-25T10:36:19.915Z,1.72
2019-03-25T10:38:47.969Z,1.98
2019-03-25T10:41:15.998Z,2.10
2019-03-25T10:43:45.660Z,2.52
2019-03-25T10:46:13.790Z,2.67
2019-03-25T10:48:41.878Z,2.83
2019-03-25T10:51:09.899Z,2.15
2019-03-25T10:53:37.959Z,2.47
2019-03-25T10:56:05.968Z,2.60
2019-03-25T10:58:34.003Z,2.60
2019-03-25T11:01:02.018Z,2.58
2019-03-25T11:03:30.064Z,2.70
2019-03-25T11:05:58.175Z,2.47
2019-03-25T11:08:26.213Z,2.80
2019-03-25T11:10:54.246Z,2.62
2019-03-25T11:13:22.380Z,2.95
2019-03-25T11:15:50.420Z,3.10
2019-03-25T11:18:18.505Z,2.95
2019-03-25T11:20:49.480Z,2.60
2019-03-25T11:23:17.520Z,3.00
2019-03-25T11:25:45.666Z,3.00
2019-03-25T11:28:13.721Z,2.52
2019-03-25T11:30:51.575Z,2.58
2019-03-25T11:33:19.602Z,2.52
2019-03-25T11:35:47.803Z,2.75
2019-03-25T11:38:15.885Z,2.80
2019-03-25T11:40:43.967Z,2.55
2019-03-25T11:43:12.158Z,2.50
2019-03-25T11:45:40.203Z,2.20
2019-03-25T11:48:08.311Z,2.60
2019-03-25T11:50:36.379Z,2.70
2019-03-25T11:53:04.400Z,2.45
2019-03-25T11:55:32.608Z,2.85
2019-03-25T11:58:00.631Z,2.80
2019-03-25T12:00:28.676Z,2.75
2019-03-25T12:02:56.703Z,2.60
2019-03-25T12:05:24.775Z,2.60
2019-03-25T12:07:52.820Z,2.62
2019-03-25T12:10:20.875Z,2.30
2019-03-25T12:12:48.955Z,2.67
2019-03-25T12:15:16.999Z,2.40
2019-03-25T12:17:45.151Z,2.40
2019-03-25T12:20:13.265Z,2.60
2019-03-25T12:22:41.392Z,2.15
2019-03-25T12:25:09.412Z,2.40
2019-03-25T12:27:37.464Z,2.27
2019-03-25T12:30:06.052Z,2.27
2019-03-25T12:32:34.100Z,2.45
2019-03-25T12:35:02.114Z,2.40
2019-03-25T12:37:30.181Z,2.40
2019-03-25T12:39:58.360Z,2.50
2019-03-25T12:42:26.391Z,2.40
2019-03-25T12:44:54.593Z,2.42
2019-03-25T12:47:22.686Z,2.25
2019-03-25T12:49:50.815Z,2.15
2019-03-25T12:52:18.926Z,2.30
2019-03-25T12:54:46.978Z,2.25
2019-03-25T12:57:15.062Z,2.22
2019-03-25T12:59:43.102Z,1.90
2019-03-25T13:02:11.192Z,2.08
2019-03-25T13:04:39.244Z,2.20
2019-03-25T13:07:08.754Z,2.27
2019-03-25T13:09:36.964Z,2.30
2019-03-25T13:12:05.152Z,2.12
2019-03-25T13:14:35.081Z,2.20
2019-03-25T13:17:02.973Z,1.77
2019-03-25T13:19:31.300Z,1.90
2019-03-25T13:21:59.336Z,2.12
2019-03-25T13:24:27.391Z,1.90
2019-03-25T13:26:55.494Z,1.90
2019-03-25T13:29:23.683Z,1.90
2019-03-25T13:31:51.706Z,1.85
2019-03-25T13:34:19.746Z,1.70
2019-03-25T13:36:47.767Z,2.10
2019-03-25T13:39:16.009Z,1.87
2019-03-25T13:41:44.038Z,1.85
2019-03-25T13:44:12.087Z,1.82
2019-03-25T13:46:40.095Z,1.92
2019-03-25T13:49:08.160Z,1.62
2019-03-25T13:51:36.213Z,1.90
2019-03-25T13:54:06.770Z,1.70
2019-03-25T13:56:34.060Z,1.90
2019-03-25T13:59:02.115Z,1.80
2019-03-25T14:01:30.186Z,1.85
2019-03-25T14:03:58.307Z,1.77
2019-03-25T14:06:26.375Z,1.60
2019-03-25T14:08:55.833Z,1.60
2019-03-25T14:11:24.093Z,1.90
2019-03-25T14:13:52.116Z,1.60
2019-03-25T14:16:20.444Z,1.70
2019-03-25T14:18:48.536Z,1.80
2019-03-25T14:21:16.571Z,1.60
2019-03-25T14:23:44.610Z,1.60
2019-03-25T14:26:13.139Z,1.85
2019-03-25T14:28:41.171Z,1.60
2019-03-25T14:31:09.305Z,1.60
2019-03-25T14:33:37.326Z,1.70
2019-03-25T14:36:05.363Z,1.65
2019-03-25T14:38:33.564Z,1.80
2019-03-25T14:41:01.796Z,1.92
2019-03-25T14:43:29.805Z,1.70
2019-03-25T14:45:57.827Z,1.82
2019-03-25T14:48:27.490Z,1.65
2019-03-25T14:50:55.502Z,1.60
2019-03-25T14:53:23.552Z,1.85
2019-03-25T14:55:51.616Z,1.80
2019-03-25T14:58:19.659Z,1.70
2019-03-25T15:00:47.769Z,1.52
2019-03-25T15:03:15.803Z,1.80
2019-03-25T15:05:43.819Z,1.70
2019-03-25T15:08:11.922Z,1.50
2019-03-25T15:10:39.932Z,1.75
2019-03-25T15:13:07.977Z,1.80
2019-03-25T15:15:36.084Z,1.80
2019-03-25T15:18:14.859Z,1.67
2019-03-25T15:20:33.913Z,1.57
2019-03-25T15:23:02.188Z,1.80
2019-03-25T15:25:30.218Z,1.72
2019-03-25T15:27:58.257Z,1.60
2019-03-25T15:30:35.396Z,1.80
2019-03-25T15:32:56.170Z,1.77
2019-03-25T15:35:24.243Z,1.57
2019-03-25T15:37:52.335Z,1.60
2019-03-25T15:40:20.423Z,1.70
2019-03-25T15:42:48.640Z,1.40
2019-03-25T15:45:16.683Z,1.60
2019-03-25T15:47:47.121Z,1.60
2019-03-25T15:50:14.452Z,1.60
2019-03-25T15:52:42.471Z,1.67
2019-03-25T15:55:10.563Z,1.50
2019-03-25T15:57:39.871Z,1.75
2019-03-25T16:00:15.674Z,1.52
2019-03-25T16:02:43.772Z,1.50
2019-03-25T16:05:11.831Z,1.50
2019-03-25T16:07:39.851Z,1.37
2019-03-25T16:10:07.971Z,1.60
2019-03-25T16:12:36.079Z,1.40
2019-03-25T16:15:05.279Z,1.40
2019-03-25T16:17:33.343Z,1.60
2019-03-25T16:20:01.380Z,1.50
2019-03-25T16:22:29.405Z,1.60
2019-03-25T16:24:57.447Z,1.50
2019-03-25T16:27:25.527Z,1.47
2019-03-25T16:29:53.579Z,1.47
2019-03-25T16:32:21.656Z,1.57
2019-03-25T16:34:49.686Z,1.42
2019-03-25T16:37:17.723Z,1.95
2019-03-25T16:39:45.753Z,1.65
2019-03-25T16:42:13.803Z,1.90
2019-03-25T16:44:41.948Z,2.00
2019-03-25T16:47:09.963Z,1.98
2019-03-25T16:49:37.980Z,2.00
2019-03-25T16:52:06.099Z,1.82
2019-03-25T16:54:34.246Z,2.37
2019-03-25T16:57:02.271Z,2.35
2019-03-25T16:59:30.383Z,2.50
2019-03-25T17:01:58.430Z,3.08
2019-03-25T17:04:26.467Z,2.50
2019-03-25T17:06:54.587Z,2.92
2019-03-25T17:09:22.637Z,3.10
2019-03-25T17:11:50.908Z,2.50
2019-03-25T17:14:18.923Z,3.05
2019-03-25T17:16:46.964Z,2.85
2019-03-25T17:19:15.048Z,3.20
2019-03-25T17:21:43.105Z,2.80
2019-03-25T17:24:11.108Z,2.77
2019-03-25T17:26:42.559Z,3.17
2019-03-25T17:29:08.907Z,3.00
2019-03-25T17:31:36.936Z,3.00
2019-03-25T17:34:04.967Z,2.98
2019-03-25T17:36:32.987Z,2.83
2019-03-25T17:39:01.164Z,2.92
2019-03-25T17:41:29.215Z,2.83
2019-03-25T17:43:57.236Z,3.27
2019-03-25T17:46:25.381Z,2.98
2019-03-25T17:48:53.587Z,3.17
2019-03-25T17:51:21.614Z,2.80
2019-03-25T17:53:49.647Z,3.00
2019-03-25T17:56:17.725Z,3.00
2019-03-25T17:58:45.931Z,2.83
2019-03-25T18:01:15.084Z,2.90
2019-03-25T18:03:43.161Z,3.12
2019-03-25T18:06:11.206Z,2.80
2019-03-25T18:08:39.282Z,3.10
2019-03-25T18:11:07.395Z,2.85
2019-03-25T18:13:35.460Z,2.90
2019-03-25T18:16:03.535Z,2.77
2019-03-25T18:18:31.761Z,3.17
2019-03-25T18:20:59.889Z,2.80
2019-03-25T18:23:27.936Z,2.77
2019-03-25T18:25:56.052Z,3.00
2019-03-25T18:28:24.096Z,2.80
2019-03-25T18:30:52.407Z,2.87
2019-03-25T18:33:20.461Z,2.80
2019-03-25T18:35:48.556Z,3.15
2019-03-25T18:38:16.695Z,2.55
2019-03-25T18:40:44.870Z,2.75
2019-03-25T18:43:12.910Z,2.45
2019-03-25T18:45:40.932Z,2.62
2019-03-25T18:48:09.028Z,2.83
2019-03-25T18:50:37.164Z,2.67
2019-03-25T18:53:05.204Z,2.72
2019-03-25T18:55:33.281Z,2.60
2019-03-25T18:58:01.514Z,2.50
2019-03-25T19:00:30.534Z,1.90
2019-03-25T19:02:58.743Z,2.67
2019-03-25T19:05:26.850Z,2.30
2019-03-25T19:07:54.872Z,2.12
2019-03-25T19:10:29.384Z,2.02
2019-03-25T19:12:57.451Z,2.33
2019-03-25T19:15:25.518Z,2.20
2019-03-25T19:17:53.613Z,2.17
2019-03-25T19:20:21.915Z,2.42
2019-03-25T19:22:49.965Z,2.20
2019-03-25T19:25:18.012Z,2.30
2019-03-25T19:27:46.200Z,2.30
2019-03-25T19:30:14.448Z,2.15
2019-03-25T19:32:42.485Z,2.47
2019-03-25T19:35:10.611Z,2.30
2019-03-25T19:37:38.638Z,2.50
2019-03-25T19:40:06.816Z,2.40
2019-03-25T19:42:34.925Z,2.17
2019-03-25T19:45:03.452Z,2.30
2019-03-25T19:47:31.496Z,2.22
2019-03-25T19:49:59.675Z,2.10
2019-03-25T19:52:27.770Z,2.33
2019-03-25T19:54:55.812Z,2.40
2019-03-25T19:57:23.836Z,2.25
2019-03-25T19:59:51.932Z,2.05
2019-03-25T20:02:20.124Z,2.17
2019-03-25T20:04:48.266Z,2.17
2019-03-25T20:07:16.314Z,2.42
2019-03-25T20:09:44.362Z,6.87
2019-03-25T20:12:12.484Z,7.83
2019-03-25T20:14:40.532Z,8.48
2019-03-25T20:17:08.757Z,8.28
2019-03-25T20:19:36.931Z,9.65
2019-03-25T20:22:05.071Z,10.28
2019-03-25T20:24:33.155Z,10.08
2019-03-25T20:27:01.262Z,10.08
2019-03-25T20:29:29.468Z,10.23
2019-03-25T20:31:57.593Z,10.28
2019-03-25T20:34:25.673Z,9.98
2019-03-25T20:36:53.730Z,9.70
2019-03-25T20:39:21.839Z,10.00
2019-03-25T20:41:49.878Z,8.88
2019-03-25T20:44:18.010Z,9.58
2019-03-25T20:46:46.161Z,9.43
2019-03-25T20:49:14.227Z,9.40
2019-03-25T20:51:42.575Z,9.10
2019-03-25T20:54:10.679Z,9.08
2019-03-25T20:56:38.737Z,8.33
2019-03-25T20:59:06.802Z,9.40
2019-03-25T21:01:35.027Z,9.53
2019-03-25T21:04:03.209Z,8.60
2019-03-25T21:06:31.411Z,8.50
2019-03-25T21:08:59.508Z,8.23
2019-03-25T21:11:27.608Z,8.90
2019-03-25T21:13:55.750Z,7.80
2019-03-25T21:16:23.826Z,8.63
2019-03-25T21:18:52.422Z,8.73
2019-03-25T21:21:20.535Z,8.00
2019-03-25T21:23:48.610Z,8.70
2019-03-25T21:26:16.741Z,8.23
2019-03-25T21:28:44.799Z,8.88
2019-03-25T21:31:12.877Z,8.38
2019-03-25T21:33:41.066Z,8.00
2019-03-25T21:36:09.219Z,7.75
2019-03-25T21:38:37.426Z,8.05
2019-03-25T21:41:05.592Z,7.87
2019-03-25T21:43:33.628Z,7.90
2019-03-25T21:46:01.835Z,7.75
2019-03-25T21:48:29.861Z,7.97
2019-03-25T21:50:57.938Z,7.58
2019-03-25T21:53:26.040Z,7.17
2019-03-25T21:55:54.209Z,7.83
2019-03-25T21:58:22.319Z,7.53
2019-03-25T22:00:50.396Z,7.33
2019-03-25T22:03:18.515Z,7.53
2019-03-25T22:05:46.591Z,7.35
2019-03-25T22:08:14.628Z,7.40
2019-03-25T22:10:43.213Z,7.28
2019-03-25T22:13:11.635Z,7.15
2019-03-25T22:15:41.319Z,7.40
2019-03-25T22:18:09.462Z,7.55
2019-03-25T22:20:37.504Z,7.22
2019-03-25T22:23:05.526Z,7.60
2019-03-25T22:25:33.654Z,6.70
2019-03-25T22:28:01.703Z,6.83
2019-03-25T22:30:29.874Z,7.28
2019-03-25T22:32:57.931Z,6.65
2019-03-25T22:35:25.924Z,6.10
2019-03-25T22:37:53.975Z,6.80
2019-03-25T22:40:21.995Z,6.70
2019-03-25T22:42:50.035Z,6.80
2019-03-25T22:45:19.765Z,6.62
2019-03-25T22:47:48.104Z,6.50
2019-03-25T22:50:20.534Z,6.22
2019-03-25T22:52:48.577Z,5.85
2019-03-25T22:55:16.631Z,6.28
2019-03-25T22:57:44.691Z,6.20
2019-03-25T23:00:13.628Z,6.03
2019-03-25T23:02:41.931Z,6.10
2019-03-25T23:05:09.960Z,5.85
2019-03-25T23:07:38.051Z,6.45
2019-03-25T23:10:06.115Z,6.00
2019-03-25T23:12:34.146Z,5.60
2019-03-25T23:15:02.162Z,6.03
2019-03-25T23:17:30.275Z,5.80
2019-03-25T23:19:58.395Z,5.53
2019-03-25T23:22:26.425Z,5.67
2019-03-25T23:24:54.458Z,5.35
2019-03-25T23:27:22.477Z,5.22
2019-03-25T23:29:50.511Z,5.37
2019-03-25T23:32:18.542Z,5.08
2019-03-25T23:34:46.811Z,5.62
2019-03-25T23:37:14.823Z,5.45
2019-03-25T23:39:42.892Z,5.15
2019-03-25T23:42:11.015Z,5.65
2019-03-25T23:44:39.109Z,5.62
2019-03-25T23:47:07.126Z,4.95
2019-03-25T23:49:35.188Z,4.83
2019-03-25T23:52:03.207Z,5.15
2019-03-25T23:54:31.254Z,5.05
2019-03-25T23:56:59.279Z,4.95
2019-03-25T23:59:27.419Z,4.90
